sensor_id;sensor_type;location;lat;lon;timestamp;P1;durP1;ratioP1;P2;durP2;ratioP2
75386;SDS011;63966;47.914;22.266;2023-06-10T00:00:41;8.73;;;5.20;;
75386;SDS011;63966;47.914;22.266;2023-06-10T00:03:46;15.23;;;6.27;;
75386;SDS011;63966;47.914;22.266;2023-06-10T00:06:50;10.52;;;5.50;;
75386;SDS011;63966;47.914;22.266;2023-06-10T00:09:54;8.73;;;5.60;;
75386;SDS011;63966;47.914;22.266;2023-06-10T00:12:57;10.45;;;5.63;;
75386;SDS011;63966;47.914;22.266;2023-06-10T00:16:01;9.53;;;5.20;;
75386;SDS011;63966;47.914;22.266;2023-06-10T00:19:06;10.20;;;5.20;;
75386;SDS011;63966;47.914;22.266;2023-06-10T00:22:10;9.57;;;5.50;;
75386;SDS011;63966;47.914;22.266;2023-06-10T00:25:14;12.25;;;6.13;;
75386;SDS011;63966;47.914;22.266;2023-06-10T00:28:18;8.02;;;4.75;;
75386;SDS011;63966;47.914;22.266;2023-06-10T00:31:21;10.07;;;5.03;;
75386;SDS011;63966;47.914;22.266;2023-06-10T00:34:24;9.30;;;5.13;;
75386;SDS011;63966;47.914;22.266;2023-06-10T00:37:28;9.02;;;5.53;;
75386;SDS011;63966;47.914;22.266;2023-06-10T00:40:33;10.07;;;4.85;;
75386;SDS011;63966;47.914;22.266;2023-06-10T00:43:43;8.95;;;5.32;;
75386;SDS011;63966;47.914;22.266;2023-06-10T00:46:46;10.70;;;5.80;;
75386;SDS011;63966;47.914;22.266;2023-06-10T00:49:52;11.33;;;5.90;;
75386;SDS011;63966;47.914;22.266;2023-06-10T00:52:58;7.70;;;5.20;;
75386;SDS011;63966;47.914;22.266;2023-06-10T00:56:03;9.07;;;5.18;;
75386;SDS011;63966;47.914;22.266;2023-06-10T00:59:06;9.73;;;5.60;;
75386;SDS011;63966;47.914;22.266;2023-06-10T01:02:10;9.47;;;5.83;;
75386;SDS011;63966;47.914;22.266;2023-06-10T01:05:13;12.73;;;5.63;;
75386;SDS011;63966;47.914;22.266;2023-06-10T01:08:23;11.52;;;5.15;;
75386;SDS011;63966;47.914;22.266;2023-06-10T01:11:41;8.95;;;5.30;;
75386;SDS011;63966;47.914;22.266;2023-06-10T01:14:54;11.77;;;5.47;;
75386;SDS011;63966;47.914;22.266;2023-06-10T01:21:13;8.73;;;5.20;;
75386;SDS011;63966;47.914;22.266;2023-06-10T01:24:23;8.60;;;5.03;;
75386;SDS011;63966;47.914;22.266;2023-06-10T01:27:29;10.13;;;5.53;;
75386;SDS011;63966;47.914;22.266;2023-06-10T01:34:00;10.20;;;5.63;;
75386;SDS011;63966;47.914;22.266;2023-06-10T01:37:05;11.93;;;5.83;;
75386;SDS011;63966;47.914;22.266;2023-06-10T01:40:13;12.15;;;5.85;;
75386;SDS011;63966;47.914;22.266;2023-06-10T01:43:17;12.02;;;6.40;;
75386;SDS011;63966;47.914;22.266;2023-06-10T01:46:22;12.52;;;6.45;;
75386;SDS011;63966;47.914;22.266;2023-06-10T01:49:25;21.73;;;6.77;;
75386;SDS011;63966;47.914;22.266;2023-06-10T01:52:30;26.80;;;7.23;;
75386;SDS011;63966;47.914;22.266;2023-06-10T01:55:36;24.95;;;7.30;;
75386;SDS011;63966;47.914;22.266;2023-06-10T01:58:39;36.75;;;8.65;;
75386;SDS011;63966;47.914;22.266;2023-06-10T02:01:43;28.52;;;7.55;;
75386;SDS011;63966;47.914;22.266;2023-06-10T02:04:46;18.17;;;7.17;;
75386;SDS011;63966;47.914;22.266;2023-06-10T02:07:50;33.83;;;8.03;;
75386;SDS011;63966;47.914;22.266;2023-06-10T02:10:53;77.00;;;8.55;;
75386;SDS011;63966;47.914;22.266;2023-06-10T02:13:57;67.47;;;8.95;;
75386;SDS011;63966;47.914;22.266;2023-06-10T02:17:00;60.72;;;8.02;;
75386;SDS011;63966;47.914;22.266;2023-06-10T02:20:04;41.03;;;8.17;;
75386;SDS011;63966;47.914;22.266;2023-06-10T02:23:09;43.10;;;7.77;;
75386;SDS011;63966;47.914;22.266;2023-06-10T02:26:12;53.40;;;8.13;;
75386;SDS011;63966;47.914;22.266;2023-06-10T02:29:16;34.35;;;7.80;;
75386;SDS011;63966;47.914;22.266;2023-06-10T02:32:19;33.72;;;7.53;;
75386;SDS011;63966;47.914;22.266;2023-06-10T02:35:23;38.07;;;7.70;;
75386;SDS011;63966;47.914;22.266;2023-06-10T02:38:27;25.97;;;7.93;;
75386;SDS011;63966;47.914;22.266;2023-06-10T02:41:33;27.60;;;7.63;;
75386;SDS011;63966;47.914;22.266;2023-06-10T02:44:37;22.00;;;6.65;;
75386;SDS011;63966;47.914;22.266;2023-06-10T02:47:45;31.50;;;7.07;;
75386;SDS011;63966;47.914;22.266;2023-06-10T02:50:49;14.13;;;5.90;;
75386;SDS011;63966;47.914;22.266;2023-06-10T02:53:59;13.00;;;6.90;;
75386;SDS011;63966;47.914;22.266;2023-06-10T02:57:02;17.05;;;6.47;;
75386;SDS011;63966;47.914;22.266;2023-06-10T03:00:06;13.63;;;6.13;;
75386;SDS011;63966;47.914;22.266;2023-06-10T03:03:15;15.18;;;6.03;;
75386;SDS011;63966;47.914;22.266;2023-06-10T03:06:28;16.40;;;6.10;;
75386;SDS011;63966;47.914;22.266;2023-06-10T03:09:42;9.67;;;4.90;;
75386;SDS011;63966;47.914;22.266;2023-06-10T03:12:48;10.35;;;5.55;;
75386;SDS011;63966;47.914;22.266;2023-06-10T03:15:52;23.27;;;6.88;;
75386;SDS011;63966;47.914;22.266;2023-06-10T03:18:57;17.52;;;6.00;;
75386;SDS011;63966;47.914;22.266;2023-06-10T03:22:08;11.07;;;5.63;;
75386;SDS011;63966;47.914;22.266;2023-06-10T03:25:18;17.90;;;5.50;;
75386;SDS011;63966;47.914;22.266;2023-06-10T03:28:26;15.65;;;5.47;;
75386;SDS011;63966;47.914;22.266;2023-06-10T03:31:30;13.73;;;5.63;;
75386;SDS011;63966;47.914;22.266;2023-06-10T03:34:35;18.38;;;5.32;;
75386;SDS011;63966;47.914;22.266;2023-06-10T03:37:38;19.13;;;6.00;;
75386;SDS011;63966;47.914;22.266;2023-06-10T03:40:42;14.27;;;5.00;;
75386;SDS011;63966;47.914;22.266;2023-06-10T03:43:46;9.70;;;5.10;;
75386;SDS011;63966;47.914;22.266;2023-06-10T03:46:49;11.40;;;5.47;;
75386;SDS011;63966;47.914;22.266;2023-06-10T03:49:54;14.18;;;5.65;;
75386;SDS011;63966;47.914;22.266;2023-06-10T03:52:59;10.13;;;5.80;;
75386;SDS011;63966;47.914;22.266;2023-06-10T03:56:02;19.63;;;5.97;;
75386;SDS011;63966;47.914;22.266;2023-06-10T03:59:06;9.40;;;5.45;;
75386;SDS011;63966;47.914;22.266;2023-06-10T04:02:10;15.43;;;5.53;;
75386;SDS011;63966;47.914;22.266;2023-06-10T04:05:14;13.63;;;4.93;;
75386;SDS011;63966;47.914;22.266;2023-06-10T04:08:18;7.30;;;5.00;;
75386;SDS011;63966;47.914;22.266;2023-06-10T04:11:25;8.67;;;5.20;;
75386;SDS011;63966;47.914;22.266;2023-06-10T04:14:31;10.13;;;5.07;;
75386;SDS011;63966;47.914;22.266;2023-06-10T04:17:34;9.00;;;5.60;;
75386;SDS011;63966;47.914;22.266;2023-06-10T04:20:38;8.77;;;5.20;;
75386;SDS011;63966;47.914;22.266;2023-06-10T04:23:42;9.17;;;5.17;;
75386;SDS011;63966;47.914;22.266;2023-06-10T04:26:46;8.53;;;5.30;;
75386;SDS011;63966;47.914;22.266;2023-06-10T04:29:49;7.88;;;5.25;;
75386;SDS011;63966;47.914;22.266;2023-06-10T04:32:53;8.30;;;5.63;;
75386;SDS011;63966;47.914;22.266;2023-06-10T04:35:57;8.43;;;5.30;;
75386;SDS011;63966;47.914;22.266;2023-06-10T04:39:03;8.83;;;5.97;;
75386;SDS011;63966;47.914;22.266;2023-06-10T04:42:09;9.73;;;6.07;;
75386;SDS011;63966;47.914;22.266;2023-06-10T04:45:14;8.32;;;5.68;;
75386;SDS011;63966;47.914;22.266;2023-06-10T04:48:18;7.85;;;5.32;;
75386;SDS011;63966;47.914;22.266;2023-06-10T04:51:22;8.05;;;5.82;;
75386;SDS011;63966;47.914;22.266;2023-06-10T04:54:25;8.33;;;5.90;;
75386;SDS011;63966;47.914;22.266;2023-06-10T04:57:28;8.30;;;5.70;;
75386;SDS011;63966;47.914;22.266;2023-06-10T05:00:32;11.43;;;6.13;;
75386;SDS011;63966;47.914;22.266;2023-06-10T05:03:35;9.18;;;6.00;;
75386;SDS011;63966;47.914;22.266;2023-06-10T05:06:39;10.57;;;6.32;;
75386;SDS011;63966;47.914;22.266;2023-06-10T05:09:42;9.17;;;6.57;;
75386;SDS011;63966;47.914;22.266;2023-06-10T05:12:45;10.13;;;6.70;;
75386;SDS011;63966;47.914;22.266;2023-06-10T05:15:49;10.85;;;7.10;;
75386;SDS011;63966;47.914;22.266;2023-06-10T05:18:52;10.85;;;6.70;;
75386;SDS011;63966;47.914;22.266;2023-06-10T05:21:56;11.20;;;7.30;;
75386;SDS011;63966;47.914;22.266;2023-06-10T05:24:59;10.73;;;6.90;;
75386;SDS011;63966;47.914;22.266;2023-06-10T05:28:02;10.50;;;7.10;;
75386;SDS011;63966;47.914;22.266;2023-06-10T05:31:06;11.32;;;6.97;;
75386;SDS011;63966;47.914;22.266;2023-06-10T05:34:09;10.27;;;7.63;;
75386;SDS011;63966;47.914;22.266;2023-06-10T05:37:13;11.23;;;8.23;;
75386;SDS011;63966;47.914;22.266;2023-06-10T05:40:16;12.97;;;8.27;;
75386;SDS011;63966;47.914;22.266;2023-06-10T05:43:20;14.93;;;8.50;;
75386;SDS011;63966;47.914;22.266;2023-06-10T05:46:23;12.20;;;8.48;;
75386;SDS011;63966;47.914;22.266;2023-06-10T05:49:27;13.02;;;9.82;;
75386;SDS011;63966;47.914;22.266;2023-06-10T05:52:30;15.02;;;8.52;;
75386;SDS011;63966;47.914;22.266;2023-06-10T05:55:34;13.00;;;8.63;;
75386;SDS011;63966;47.914;22.266;2023-06-10T05:58:38;13.23;;;7.93;;
75386;SDS011;63966;47.914;22.266;2023-06-10T06:01:41;12.20;;;7.95;;
75386;SDS011;63966;47.914;22.266;2023-06-10T06:04:45;13.57;;;7.60;;
75386;SDS011;63966;47.914;22.266;2023-06-10T06:07:48;14.00;;;7.68;;
75386;SDS011;63966;47.914;22.266;2023-06-10T06:10:52;10.63;;;7.30;;
75386;SDS011;63966;47.914;22.266;2023-06-10T06:13:55;11.33;;;7.20;;
75386;SDS011;63966;47.914;22.266;2023-06-10T06:16:59;12.02;;;7.75;;
75386;SDS011;63966;47.914;22.266;2023-06-10T06:20:03;12.75;;;7.40;;
75386;SDS011;63966;47.914;22.266;2023-06-10T06:23:07;10.18;;;6.95;;
75386;SDS011;63966;47.914;22.266;2023-06-10T06:26:12;12.10;;;7.20;;
75386;SDS011;63966;47.914;22.266;2023-06-10T06:29:16;10.17;;;7.43;;
75386;SDS011;63966;47.914;22.266;2023-06-10T06:32:20;10.88;;;6.90;;
75386;SDS011;63966;47.914;22.266;2023-06-10T06:35:25;11.52;;;6.60;;
75386;SDS011;63966;47.914;22.266;2023-06-10T06:38:28;9.57;;;7.00;;
75386;SDS011;63966;47.914;22.266;2023-06-10T06:41:32;11.97;;;7.40;;
75386;SDS011;63966;47.914;22.266;2023-06-10T06:44:35;10.97;;;7.23;;
75386;SDS011;63966;47.914;22.266;2023-06-10T06:47:38;12.07;;;7.15;;
75386;SDS011;63966;47.914;22.266;2023-06-10T06:50:42;12.20;;;7.30;;
75386;SDS011;63966;47.914;22.266;2023-06-10T06:53:46;9.77;;;6.63;;
75386;SDS011;63966;47.914;22.266;2023-06-10T06:56:49;11.63;;;6.83;;
75386;SDS011;63966;47.914;22.266;2023-06-10T06:59:53;12.17;;;6.77;;
75386;SDS011;63966;47.914;22.266;2023-06-10T07:02:57;13.32;;;7.13;;
75386;SDS011;63966;47.914;22.266;2023-06-10T07:06:01;8.90;;;6.68;;
75386;SDS011;63966;47.914;22.266;2023-06-10T07:09:05;10.63;;;6.38;;
75386;SDS011;63966;47.914;22.266;2023-06-10T07:12:09;11.83;;;7.33;;
75386;SDS011;63966;47.914;22.266;2023-06-10T07:15:13;9.43;;;6.40;;
75386;SDS011;63966;47.914;22.266;2023-06-10T07:18:16;9.45;;;5.93;;
75386;SDS011;63966;47.914;22.266;2023-06-10T07:21:20;10.38;;;7.20;;
75386;SDS011;63966;47.914;22.266;2023-06-10T07:24:25;10.55;;;7.60;;
75386;SDS011;63966;47.914;22.266;2023-06-10T07:27:28;13.53;;;8.17;;
75386;SDS011;63966;47.914;22.266;2023-06-10T07:30:32;14.60;;;6.87;;
75386;SDS011;63966;47.914;22.266;2023-06-10T07:33:35;13.63;;;6.93;;
75386;SDS011;63966;47.914;22.266;2023-06-10T07:36:40;15.18;;;8.07;;
75386;SDS011;63966;47.914;22.266;2023-06-10T07:39:43;12.13;;;7.60;;
75386;SDS011;63966;47.914;22.266;2023-06-10T07:42:47;10.40;;;7.73;;
75386;SDS011;63966;47.914;22.266;2023-06-10T07:45:50;9.13;;;6.27;;
75386;SDS011;63966;47.914;22.266;2023-06-10T07:48:54;7.53;;;5.55;;
75386;SDS011;63966;47.914;22.266;2023-06-10T07:51:57;9.73;;;5.53;;
75386;SDS011;63966;47.914;22.266;2023-06-10T07:55:02;8.48;;;5.50;;
75386;SDS011;63966;47.914;22.266;2023-06-10T07:58:06;8.82;;;5.63;;
75386;SDS011;63966;47.914;22.266;2023-06-10T08:01:09;6.80;;;5.07;;
75386;SDS011;63966;47.914;22.266;2023-06-10T08:04:13;9.50;;;5.50;;
75386;SDS011;63966;47.914;22.266;2023-06-10T08:07:16;8.88;;;5.07;;
75386;SDS011;63966;47.914;22.266;2023-06-10T08:10:21;8.15;;;5.72;;
75386;SDS011;63966;47.914;22.266;2023-06-10T08:13:24;8.98;;;5.68;;
75386;SDS011;63966;47.914;22.266;2023-06-10T08:16:28;9.03;;;4.97;;
75386;SDS011;63966;47.914;22.266;2023-06-10T08:19:31;10.50;;;5.55;;
75386;SDS011;63966;47.914;22.266;2023-06-10T08:22:35;10.20;;;5.78;;
75386;SDS011;63966;47.914;22.266;2023-06-10T08:25:38;8.73;;;5.28;;
75386;SDS011;63966;47.914;22.266;2023-06-10T08:28:42;8.10;;;6.38;;
75386;SDS011;63966;47.914;22.266;2023-06-10T08:31:45;10.00;;;5.70;;
75386;SDS011;63966;47.914;22.266;2023-06-10T08:34:49;7.32;;;4.68;;
75386;SDS011;63966;47.914;22.266;2023-06-10T08:37:52;7.75;;;4.50;;
75386;SDS011;63966;47.914;22.266;2023-06-10T08:40:56;8.07;;;4.90;;
75386;SDS011;63966;47.914;22.266;2023-06-10T08:44:22;7.15;;;4.75;;
75386;SDS011;63966;47.914;22.266;2023-06-10T08:47:35;8.17;;;4.47;;
75386;SDS011;63966;47.914;22.266;2023-06-10T08:50:41;7.22;;;4.40;;
75386;SDS011;63966;47.914;22.266;2023-06-10T08:53:50;7.93;;;4.45;;
75386;SDS011;63966;47.914;22.266;2023-06-10T08:57:06;7.53;;;5.10;;
75386;SDS011;63966;47.914;22.266;2023-06-10T09:00:09;8.48;;;4.45;;
75386;SDS011;63966;47.914;22.266;2023-06-10T09:03:14;10.20;;;4.17;;
75386;SDS011;63966;47.914;22.266;2023-06-10T09:06:18;7.10;;;3.72;;
75386;SDS011;63966;47.914;22.266;2023-06-10T09:09:23;8.93;;;4.57;;
75386;SDS011;63966;47.914;22.266;2023-06-10T09:12:30;8.65;;;4.60;;
75386;SDS011;63966;47.914;22.266;2023-06-10T09:15:33;9.00;;;5.90;;
75386;SDS011;63966;47.914;22.266;2023-06-10T09:18:37;7.50;;;5.27;;
75386;SDS011;63966;47.914;22.266;2023-06-10T09:21:40;10.82;;;4.35;;
75386;SDS011;63966;47.914;22.266;2023-06-10T09:24:44;9.63;;;5.57;;
75386;SDS011;63966;47.914;22.266;2023-06-10T09:27:51;8.48;;;4.40;;
75386;SDS011;63966;47.914;22.266;2023-06-10T09:31:05;6.35;;;3.78;;
75386;SDS011;63966;47.914;22.266;2023-06-10T09:37:19;7.32;;;4.30;;
75386;SDS011;63966;47.914;22.266;2023-06-10T09:40:24;6.90;;;4.47;;
75386;SDS011;63966;47.914;22.266;2023-06-10T09:43:43;6.95;;;4.00;;
75386;SDS011;63966;47.914;22.266;2023-06-10T09:46:49;6.83;;;3.87;;
75386;SDS011;63966;47.914;22.266;2023-06-10T09:49:52;7.07;;;3.90;;
75386;SDS011;63966;47.914;22.266;2023-06-10T09:52:56;8.13;;;4.07;;
75386;SDS011;63966;47.914;22.266;2023-06-10T09:56:00;7.38;;;4.03;;
75386;SDS011;63966;47.914;22.266;2023-06-10T09:59:03;6.43;;;3.70;;
75386;SDS011;63966;47.914;22.266;2023-06-10T10:02:15;5.67;;;3.87;;
75386;SDS011;63966;47.914;22.266;2023-06-10T10:05:20;7.63;;;4.13;;
75386;SDS011;63966;47.914;22.266;2023-06-10T10:08:24;8.43;;;4.10;;
75386;SDS011;63966;47.914;22.266;2023-06-10T10:11:28;6.15;;;4.13;;
75386;SDS011;63966;47.914;22.266;2023-06-10T10:14:33;6.80;;;3.40;;
75386;SDS011;63966;47.914;22.266;2023-06-10T10:17:45;6.65;;;4.20;;
75386;SDS011;63966;47.914;22.266;2023-06-10T10:21:00;7.60;;;4.27;;
75386;SDS011;63966;47.914;22.266;2023-06-10T10:24:21;7.88;;;4.15;;
75386;SDS011;63966;47.914;22.266;2023-06-10T10:27:28;6.93;;;4.28;;
75386;SDS011;63966;47.914;22.266;2023-06-10T10:30:42;6.35;;;3.25;;
75386;SDS011;63966;47.914;22.266;2023-06-10T10:33:54;6.63;;;3.73;;
75386;SDS011;63966;47.914;22.266;2023-06-10T10:37:02;5.47;;;3.23;;
75386;SDS011;63966;47.914;22.266;2023-06-10T10:40:06;6.15;;;3.63;;
75386;SDS011;63966;47.914;22.266;2023-06-10T10:43:10;6.88;;;3.28;;
75386;SDS011;63966;47.914;22.266;2023-06-10T10:46:16;6.18;;;3.35;;
75386;SDS011;63966;47.914;22.266;2023-06-10T10:49:20;6.03;;;3.25;;
75386;SDS011;63966;47.914;22.266;2023-06-10T10:52:24;6.90;;;4.70;;
75386;SDS011;63966;47.914;22.266;2023-06-10T10:55:29;6.47;;;3.45;;
75386;SDS011;63966;47.914;22.266;2023-06-10T10:58:33;7.78;;;4.03;;
75386;SDS011;63966;47.914;22.266;2023-06-10T11:01:40;7.47;;;3.70;;
75386;SDS011;63966;47.914;22.266;2023-06-10T11:04:48;5.67;;;3.60;;
75386;SDS011;63966;47.914;22.266;2023-06-10T11:07:55;8.80;;;3.40;;
75386;SDS011;63966;47.914;22.266;2023-06-10T11:10:58;5.65;;;3.40;;
75386;SDS011;63966;47.914;22.266;2023-06-10T11:17:17;6.55;;;3.80;;
75386;SDS011;63966;47.914;22.266;2023-06-10T11:23:53;5.70;;;3.27;;
75386;SDS011;63966;47.914;22.266;2023-06-10T11:27:16;6.70;;;3.50;;
75386;SDS011;63966;47.914;22.266;2023-06-10T11:30:34;6.00;;;3.65;;
75386;SDS011;63966;47.914;22.266;2023-06-10T11:33:38;6.18;;;3.35;;
75386;SDS011;63966;47.914;22.266;2023-06-10T11:36:42;9.52;;;3.58;;
75386;SDS011;63966;47.914;22.266;2023-06-10T11:39:51;5.77;;;3.50;;
75386;SDS011;63966;47.914;22.266;2023-06-10T11:42:55;8.20;;;3.40;;
75386;SDS011;63966;47.914;22.266;2023-06-10T11:46:00;6.10;;;3.45;;
75386;SDS011;63966;47.914;22.266;2023-06-10T11:49:04;7.80;;;3.88;;
75386;SDS011;63966;47.914;22.266;2023-06-10T11:52:08;6.38;;;3.60;;
75386;SDS011;63966;47.914;22.266;2023-06-10T11:55:12;10.47;;;4.00;;
75386;SDS011;63966;47.914;22.266;2023-06-10T11:58:17;6.30;;;3.85;;
75386;SDS011;63966;47.914;22.266;2023-06-10T12:01:22;5.63;;;3.20;;
75386;SDS011;63966;47.914;22.266;2023-06-10T12:04:30;6.22;;;3.60;;
75386;SDS011;63966;47.914;22.266;2023-06-10T12:07:34;6.07;;;3.30;;
75386;SDS011;63966;47.914;22.266;2023-06-10T12:10:41;5.77;;;3.00;;
75386;SDS011;63966;47.914;22.266;2023-06-10T12:13:45;6.30;;;3.50;;
75386;SDS011;63966;47.914;22.266;2023-06-10T12:16:52;6.40;;;3.38;;
75386;SDS011;63966;47.914;22.266;2023-06-10T12:19:58;7.78;;;3.20;;
75386;SDS011;63966;47.914;22.266;2023-06-10T12:23:09;5.50;;;3.25;;
75386;SDS011;63966;47.914;22.266;2023-06-10T12:26:13;5.73;;;2.87;;
75386;SDS011;63966;47.914;22.266;2023-06-10T12:29:19;7.75;;;3.20;;
75386;SDS011;63966;47.914;22.266;2023-06-10T12:32:34;5.90;;;3.38;;
75386;SDS011;63966;47.914;22.266;2023-06-10T12:35:49;7.20;;;3.20;;
75386;SDS011;63966;47.914;22.266;2023-06-10T12:38:53;5.75;;;3.35;;
75386;SDS011;63966;47.914;22.266;2023-06-10T12:42:06;5.20;;;3.17;;
75386;SDS011;63966;47.914;22.266;2023-06-10T12:45:11;6.78;;;3.30;;
75386;SDS011;63966;47.914;22.266;2023-06-10T12:48:22;10.00;;;3.85;;
75386;SDS011;63966;47.914;22.266;2023-06-10T12:51:30;6.70;;;3.05;;
75386;SDS011;63966;47.914;22.266;2023-06-10T12:54:34;8.05;;;3.30;;
75386;SDS011;63966;47.914;22.266;2023-06-10T12:57:46;5.30;;;3.30;;
75386;SDS011;63966;47.914;22.266;2023-06-10T13:00:51;5.80;;;3.15;;
75386;SDS011;63966;47.914;22.266;2023-06-10T13:03:55;8.13;;;3.55;;
75386;SDS011;63966;47.914;22.266;2023-06-10T13:06:59;6.45;;;3.05;;
75386;SDS011;63966;47.914;22.266;2023-06-10T13:10:03;5.65;;;2.85;;
75386;SDS011;63966;47.914;22.266;2023-06-10T13:13:07;5.53;;;3.07;;
75386;SDS011;63966;47.914;22.266;2023-06-10T13:16:12;6.93;;;2.90;;
75386;SDS011;63966;47.914;22.266;2023-06-10T13:19:15;6.95;;;3.60;;
75386;SDS011;63966;47.914;22.266;2023-06-10T13:22:19;7.28;;;3.25;;
75386;SDS011;63966;47.914;22.266;2023-06-10T13:25:22;5.53;;;3.28;;
75386;SDS011;63966;47.914;22.266;2023-06-10T13:28:26;6.03;;;3.00;;
75386;SDS011;63966;47.914;22.266;2023-06-10T13:31:29;6.43;;;3.25;;
75386;SDS011;63966;47.914;22.266;2023-06-10T13:34:35;4.88;;;2.90;;
75386;SDS011;63966;47.914;22.266;2023-06-10T13:37:39;4.43;;;2.50;;
75386;SDS011;63966;47.914;22.266;2023-06-10T13:40:43;7.10;;;2.80;;
75386;SDS011;63966;47.914;22.266;2023-06-10T13:43:46;6.13;;;3.40;;
75386;SDS011;63966;47.914;22.266;2023-06-10T13:46:50;7.40;;;4.00;;
75386;SDS011;63966;47.914;22.266;2023-06-10T13:49:53;7.72;;;3.47;;
75386;SDS011;63966;47.914;22.266;2023-06-10T13:52:57;5.60;;;3.00;;
75386;SDS011;63966;47.914;22.266;2023-06-10T13:56:04;8.27;;;3.40;;
75386;SDS011;63966;47.914;22.266;2023-06-10T13:59:08;6.03;;;3.07;;
75386;SDS011;63966;47.914;22.266;2023-06-10T14:02:11;8.02;;;3.15;;
75386;SDS011;63966;47.914;22.266;2023-06-10T14:05:15;5.53;;;2.97;;
75386;SDS011;63966;47.914;22.266;2023-06-10T14:08:18;6.45;;;3.10;;
75386;SDS011;63966;47.914;22.266;2023-06-10T14:11:23;5.22;;;2.70;;
75386;SDS011;63966;47.914;22.266;2023-06-10T14:14:26;5.83;;;2.67;;
75386;SDS011;63966;47.914;22.266;2023-06-10T14:17:29;6.88;;;3.13;;
75386;SDS011;63966;47.914;22.266;2023-06-10T14:20:33;6.65;;;2.72;;
75386;SDS011;63966;47.914;22.266;2023-06-10T14:23:36;8.23;;;3.10;;
75386;SDS011;63966;47.914;22.266;2023-06-10T14:26:40;4.90;;;2.88;;
75386;SDS011;63966;47.914;22.266;2023-06-10T14:29:43;8.97;;;3.17;;
75386;SDS011;63966;47.914;22.266;2023-06-10T14:32:47;5.38;;;3.05;;
75386;SDS011;63966;47.914;22.266;2023-06-10T14:35:50;5.68;;;3.47;;
75386;SDS011;63966;47.914;22.266;2023-06-10T14:38:54;7.28;;;2.90;;
75386;SDS011;63966;47.914;22.266;2023-06-10T14:41:59;6.50;;;2.97;;
75386;SDS011;63966;47.914;22.266;2023-06-10T14:45:02;6.03;;;2.97;;
75386;SDS011;63966;47.914;22.266;2023-06-10T14:48:08;6.68;;;3.10;;
75386;SDS011;63966;47.914;22.266;2023-06-10T14:51:11;6.18;;;2.80;;
75386;SDS011;63966;47.914;22.266;2023-06-10T14:54:15;5.45;;;2.72;;
75386;SDS011;63966;47.914;22.266;2023-06-10T14:57:18;5.07;;;2.72;;
75386;SDS011;63966;47.914;22.266;2023-06-10T15:00:22;8.60;;;2.80;;
75386;SDS011;63966;47.914;22.266;2023-06-10T15:03:26;6.75;;;3.15;;
75386;SDS011;63966;47.914;22.266;2023-06-10T15:06:29;5.55;;;3.28;;
75386;SDS011;63966;47.914;22.266;2023-06-10T15:09:33;6.32;;;3.08;;
75386;SDS011;63966;47.914;22.266;2023-06-10T15:12:36;7.30;;;3.47;;
75386;SDS011;63966;47.914;22.266;2023-06-10T15:15:39;5.77;;;3.50;;
75386;SDS011;63966;47.914;22.266;2023-06-10T15:18:43;6.70;;;3.25;;
75386;SDS011;63966;47.914;22.266;2023-06-10T15:21:46;8.70;;;2.65;;
75386;SDS011;63966;47.914;22.266;2023-06-10T15:24:50;6.57;;;2.20;;
75386;SDS011;63966;47.914;22.266;2023-06-10T15:27:53;6.50;;;2.47;;
75386;SDS011;63966;47.914;22.266;2023-06-10T15:30:57;7.10;;;2.47;;
75386;SDS011;63966;47.914;22.266;2023-06-10T15:34:00;8.65;;;3.03;;
75386;SDS011;63966;47.914;22.266;2023-06-10T15:37:04;6.75;;;3.30;;
75386;SDS011;63966;47.914;22.266;2023-06-10T15:40:08;8.05;;;4.45;;
75386;SDS011;63966;47.914;22.266;2023-06-10T15:43:11;9.30;;;4.77;;
75386;SDS011;63966;47.914;22.266;2023-06-10T15:46:15;8.07;;;4.60;;
75386;SDS011;63966;47.914;22.266;2023-06-10T15:54:20;13.23;;;5.47;;
75386;SDS011;63966;47.914;22.266;2023-06-10T15:57:23;9.55;;;4.70;;
75386;SDS011;63966;47.914;22.266;2023-06-10T16:00:28;11.07;;;5.07;;
75386;SDS011;63966;47.914;22.266;2023-06-10T16:03:32;8.83;;;4.67;;
75386;SDS011;63966;47.914;22.266;2023-06-10T16:06:35;8.43;;;4.10;;
75386;SDS011;63966;47.914;22.266;2023-06-10T16:09:39;12.15;;;3.78;;
75386;SDS011;63966;47.914;22.266;2023-06-10T16:12:42;9.38;;;3.85;;
75386;SDS011;63966;47.914;22.266;2023-06-10T16:15:45;10.87;;;3.43;;
75386;SDS011;63966;47.914;22.266;2023-06-10T16:18:49;7.33;;;3.63;;
75386;SDS011;63966;47.914;22.266;2023-06-10T16:21:52;10.52;;;3.00;;
75386;SDS011;63966;47.914;22.266;2023-06-10T16:24:56;6.55;;;3.25;;
75386;SDS011;63966;47.914;22.266;2023-06-10T16:27:59;5.93;;;2.60;;
75386;SDS011;63966;47.914;22.266;2023-06-10T16:31:04;7.13;;;2.80;;
75386;SDS011;63966;47.914;22.266;2023-06-10T16:34:07;6.10;;;2.80;;
75386;SDS011;63966;47.914;22.266;2023-06-10T16:37:11;5.22;;;2.47;;
75386;SDS011;63966;47.914;22.266;2023-06-10T16:40:15;6.05;;;2.70;;
75386;SDS011;63966;47.914;22.266;2023-06-10T16:43:18;6.53;;;3.28;;
75386;SDS011;63966;47.914;22.266;2023-06-10T16:46:22;5.87;;;3.07;;
75386;SDS011;63966;47.914;22.266;2023-06-10T16:49:27;9.77;;;3.80;;
75386;SDS011;63966;47.914;22.266;2023-06-10T16:52:30;9.40;;;3.20;;
75386;SDS011;63966;47.914;22.266;2023-06-10T16:55:34;9.35;;;3.00;;
75386;SDS011;63966;47.914;22.266;2023-06-10T16:58:40;6.70;;;3.05;;
75386;SDS011;63966;47.914;22.266;2023-06-10T17:01:44;8.13;;;3.00;;
75386;SDS011;63966;47.914;22.266;2023-06-10T17:04:47;9.37;;;3.00;;
75386;SDS011;63966;47.914;22.266;2023-06-10T17:07:50;8.40;;;3.60;;
75386;SDS011;63966;47.914;22.266;2023-06-10T17:10:54;7.35;;;3.17;;
75386;SDS011;63966;47.914;22.266;2023-06-10T17:13:57;5.93;;;3.10;;
75386;SDS011;63966;47.914;22.266;2023-06-10T17:17:01;7.67;;;3.27;;
75386;SDS011;63966;47.914;22.266;2023-06-10T17:20:05;8.77;;;3.20;;
75386;SDS011;63966;47.914;22.266;2023-06-10T17:23:09;7.53;;;2.90;;
75386;SDS011;63966;47.914;22.266;2023-06-10T17:26:13;7.15;;;3.55;;
75386;SDS011;63966;47.914;22.266;2023-06-10T17:29:17;6.97;;;3.92;;
75386;SDS011;63966;47.914;22.266;2023-06-10T17:32:20;6.70;;;3.40;;
75386;SDS011;63966;47.914;22.266;2023-06-10T17:35:24;7.13;;;2.97;;
75386;SDS011;63966;47.914;22.266;2023-06-10T17:38:27;6.82;;;3.30;;
75386;SDS011;63966;47.914;22.266;2023-06-10T17:41:31;8.43;;;3.70;;
75386;SDS011;63966;47.914;22.266;2023-06-10T17:44:34;8.20;;;3.42;;
75386;SDS011;63966;47.914;22.266;2023-06-10T17:47:37;7.80;;;3.70;;
75386;SDS011;63966;47.914;22.266;2023-06-10T17:50:41;7.90;;;3.63;;
75386;SDS011;63966;47.914;22.266;2023-06-10T17:53:44;7.20;;;3.50;;
75386;SDS011;63966;47.914;22.266;2023-06-10T17:56:49;9.18;;;4.05;;
75386;SDS011;63966;47.914;22.266;2023-06-10T17:59:52;8.70;;;4.47;;
75386;SDS011;63966;47.914;22.266;2023-06-10T18:02:56;11.20;;;5.40;;
75386;SDS011;63966;47.914;22.266;2023-06-10T18:05:59;14.23;;;6.27;;
75386;SDS011;63966;47.914;22.266;2023-06-10T18:09:03;14.18;;;6.10;;
75386;SDS011;63966;47.914;22.266;2023-06-10T18:12:07;11.13;;;5.30;;
75386;SDS011;63966;47.914;22.266;2023-06-10T18:15:10;7.20;;;3.65;;
75386;SDS011;63966;47.914;22.266;2023-06-10T18:18:14;8.37;;;3.50;;
75386;SDS011;63966;47.914;22.266;2023-06-10T18:21:18;11.10;;;4.57;;
75386;SDS011;63966;47.914;22.266;2023-06-10T18:24:22;10.65;;;4.13;;
75386;SDS011;63966;47.914;22.266;2023-06-10T18:27:25;9.05;;;4.18;;
75386;SDS011;63966;47.914;22.266;2023-06-10T18:30:29;6.78;;;3.60;;
75386;SDS011;63966;47.914;22.266;2023-06-10T18:33:32;7.70;;;3.10;;